createdAt,value
2017-11-24T00:00:05.398Z,1004.68
2017-11-24T00:01:05.420Z,1004.74
2017-11-24T00:02:05.440Z,1004.70
2017-11-24T00:03:05.459Z,1004.71
2017-11-24T00:04:05.485Z,1004.77
2017-11-24T00:05:05.507Z,1004.74
2017-11-24T00:06:05.521Z,1004.79
2017-11-24T00:07:05.539Z,1004.78
2017-11-24T00:08:05.808Z,1004.77
2017-11-24T00:09:05.580Z,1004.81
2017-11-24T00:10:05.600Z,1004.79
2017-11-24T00:11:05.621Z,1004.82
2017-11-24T00:12:05.629Z,1004.84
2017-11-24T00:13:05.953Z,1004.80
2017-11-24T00:14:05.676Z,1004.71
2017-11-24T00:15:05.696Z,1004.68
2017-11-24T00:16:05.714Z,1004.69
2017-11-24T00:17:05.726Z,1004.71
2017-11-24T00:18:05.748Z,1004.75
2017-11-24T00:19:05.770Z,1004.79
2017-11-24T00:20:05.791Z,1004.73
2017-11-24T00:21:05.812Z,1004.75
2017-11-24T00:22:05.820Z,1004.79
2017-11-24T00:23:06.092Z,1004.77
2017-11-24T00:24:05.875Z,1004.75
2017-11-24T00:25:05.888Z,1004.73
2017-11-24T00:26:05.892Z,1004.71
2017-11-24T00:27:05.916Z,1004.70
2017-11-24T00:28:06.238Z,1004.71
2017-11-24T00:29:05.949Z,1004.68
2017-11-24T00:30:05.974Z,1004.70
2017-11-24T00:31:05.990Z,1004.75
2017-11-24T00:32:06.000Z,1004.78
2017-11-24T00:33:06.026Z,1004.74
2017-11-24T00:34:06.057Z,1004.78
2017-11-24T00:35:06.058Z,1004.79
2017-11-24T00:36:06.085Z,1004.83
2017-11-24T00:37:06.097Z,1004.86
2017-11-24T00:38:06.430Z,1004.89
2017-11-24T00:39:06.132Z,1004.89
2017-11-24T00:40:06.151Z,1004.87
2017-11-24T00:41:06.187Z,1004.86
2017-11-24T00:42:06.206Z,1004.88
2017-11-24T00:43:06.459Z,1004.88
2017-11-24T00:44:06.231Z,1004.92
2017-11-24T00:45:06.244Z,1004.91
2017-11-24T00:46:06.268Z,1004.89
2017-11-24T00:47:06.290Z,1004.91
2017-11-24T00:48:06.299Z,1004.91
2017-11-24T00:49:06.319Z,1004.90
2017-11-24T00:50:06.342Z,1004.86
2017-11-24T00:51:06.365Z,1004.87
2017-11-24T00:52:06.384Z,1004.91
2017-11-24T00:53:06.392Z,1004.97
2017-11-24T00:54:06.420Z,1005.00
2017-11-24T00:55:06.440Z,1005.03
2017-11-24T00:56:06.447Z,1005.05
2017-11-24T00:57:06.471Z,1005.05
2017-11-24T00:58:06.487Z,1005.10
2017-11-24T00:59:06.519Z,1005.10
2017-11-24T01:00:06.524Z,1005.16
2017-11-24T01:01:06.540Z,1005.16
2017-11-24T01:02:06.567Z,1005.18
2017-11-24T01:03:06.580Z,1005.17
2017-11-24T01:04:06.593Z,1005.18
2017-11-24T01:05:06.622Z,1005.17
2017-11-24T01:06:06.640Z,1005.13
2017-11-24T01:07:06.660Z,1005.16
2017-11-24T01:08:06.968Z,1005.15
2017-11-24T01:09:06.691Z,1005.16
2017-11-24T01:10:06.701Z,1005.12
2017-11-24T01:11:06.728Z,1005.12
2017-11-24T01:12:06.744Z,1005.06
2017-11-24T01:13:06.772Z,1005.07
2017-11-24T01:14:06.781Z,1005.06
2017-11-24T01:15:06.801Z,1005.07
2017-11-24T01:16:06.808Z,1005.06
2017-11-24T01:17:06.835Z,1005.01
2017-11-24T01:18:07.106Z,1005.04
2017-11-24T01:19:06.875Z,1005.03
2017-11-24T01:20:06.904Z,1004.98
2017-11-24T01:21:06.898Z,1005.04
2017-11-24T01:22:06.933Z,1005.08
2017-11-24T01:23:06.951Z,1005.13
2017-11-24T01:24:06.972Z,1005.10
2017-11-24T01:25:06.977Z,1005.09
2017-11-24T01:26:07.000Z,1005.08
2017-11-24T01:27:07.017Z,1005.12
2017-11-24T01:28:07.041Z,1005.08
2017-11-24T01:29:07.054Z,1005.08
2017-11-24T01:30:07.087Z,1005.09
2017-11-24T01:31:07.095Z,1005.09
2017-11-24T01:32:07.108Z,1005.05
2017-11-24T01:33:07.138Z,1005.01
2017-11-24T01:34:07.140Z,1004.99
2017-11-24T01:35:07.163Z,1005.01
2017-11-24T01:36:07.193Z,1005.04
2017-11-24T01:37:07.205Z,1005.01
2017-11-24T01:38:07.470Z,1004.99
2017-11-24T01:39:07.240Z,1004.96
2017-11-24T01:40:07.262Z,1004.94
2017-11-24T01:41:07.280Z,1004.89
2017-11-24T01:42:07.297Z,1004.85
2017-11-24T01:43:07.308Z,1004.85
2017-11-24T01:44:07.342Z,1004.85
2017-11-24T01:45:07.352Z,1004.86
2017-11-24T01:46:07.383Z,1004.81
2017-11-24T01:47:07.391Z,1004.84
2017-11-24T01:48:07.409Z,1004.88
2017-11-24T01:49:07.427Z,1004.89
2017-11-24T01:50:07.445Z,1004.87
2017-11-24T01:51:07.465Z,1004.91
2017-11-24T01:52:07.486Z,1004.97
2017-11-24T01:53:07.504Z,1004.99
2017-11-24T01:54:07.530Z,1005.00
2017-11-24T01:55:07.551Z,1005.01
2017-11-24T01:56:07.566Z,1005.02
2017-11-24T01:57:07.580Z,1005.00
2017-11-24T01:58:07.593Z,1005.02
2017-11-24T01:59:07.613Z,1005.02
2017-11-24T02:00:07.646Z,1005.04
2017-11-24T02:01:07.653Z,1005.09
2017-11-24T02:02:07.668Z,1005.12
2017-11-24T02:03:07.688Z,1005.10
2017-11-24T02:04:07.707Z,1005.04
2017-11-24T02:05:07.733Z,1005.06
2017-11-24T02:06:07.747Z,1005.04
2017-11-24T02:07:07.760Z,1005.04
2017-11-24T02:08:08.085Z,1005.12
2017-11-24T02:09:07.799Z,1005.09
2017-11-24T02:10:07.831Z,1005.12
2017-11-24T02:11:07.836Z,1005.13
2017-11-24T02:12:07.853Z,1005.11
2017-11-24T02:13:07.880Z,1005.11
2017-11-24T02:14:07.901Z,1005.05
2017-11-24T02:15:07.923Z,1005.07
2017-11-24T02:16:07.932Z,1005.10
2017-11-24T02:17:07.946Z,1005.10
2017-11-24T02:18:08.280Z,1005.09
2017-11-24T02:19:08.003Z,1005.01
2017-11-24T02:20:08.010Z,1005.09
2017-11-24T02:21:08.027Z,1005.15
2017-11-24T02:22:08.044Z,1005.17
2017-11-24T02:23:08.071Z,1005.19
2017-11-24T02:24:08.096Z,1005.12
2017-11-24T02:25:08.112Z,1005.11
2017-11-24T02:26:08.119Z,1005.04
2017-11-24T02:27:08.142Z,1005.00
2017-11-24T02:28:08.409Z,1005.04
2017-11-24T02:29:08.192Z,1005.01
2017-11-24T02:30:08.199Z,1004.99
2017-11-24T02:31:08.209Z,1005.00
2017-11-24T02:32:08.240Z,1004.98
2017-11-24T02:33:08.253Z,1004.97
2017-11-24T02:34:08.286Z,1005.01
2017-11-24T02:35:08.300Z,1004.97
2017-11-24T02:36:08.314Z,1005.01
2017-11-24T02:37:08.330Z,1005.02
2017-11-24T02:38:08.360Z,1005.10
2017-11-24T02:39:08.375Z,1005.09
2017-11-24T02:40:08.401Z,1005.14
2017-11-24T02:41:08.404Z,1005.17
2017-11-24T02:42:08.422Z,1005.18
2017-11-24T02:43:08.452Z,1005.15
2017-11-24T02:44:08.462Z,1005.06
2017-11-24T02:45:08.494Z,1005.03
2017-11-24T02:46:08.500Z,1005.03
2017-11-24T02:47:08.515Z,1005.02
2017-11-24T02:48:08.804Z,1005.00
2017-11-24T02:49:08.563Z,1004.98
2017-11-24T02:50:08.588Z,1004.92
2017-11-24T02:51:08.590Z,1004.92
2017-11-24T02:52:08.616Z,1004.92
2017-11-24T02:53:08.643Z,1004.91
2017-11-24T02:54:08.656Z,1004.89
2017-11-24T02:55:08.681Z,1004.87
2017-11-24T02:56:08.690Z,1004.85
2017-11-24T02:57:08.710Z,1004.82
2017-11-24T02:58:08.728Z,1004.83
2017-11-24T02:59:08.756Z,1004.83
2017-11-24T03:00:08.772Z,1004.83
2017-11-24T03:01:08.779Z,1004.82
2017-11-24T03:02:08.805Z,1004.82
2017-11-24T03:03:09.074Z,1004.81
2017-11-24T03:04:08.852Z,1004.79
2017-11-24T03:05:08.864Z,1004.83
2017-11-24T03:06:08.882Z,1004.79
2017-11-24T03:07:08.904Z,1004.84
2017-11-24T03:08:08.913Z,1004.84
2017-11-24T03:09:08.937Z,1004.78
2017-11-24T03:10:08.971Z,1004.83
2017-11-24T03:11:08.964Z,1004.81
2017-11-24T03:12:08.998Z,1004.83
2017-11-24T03:13:09.017Z,1004.82
2017-11-24T03:14:09.037Z,1004.83
2017-11-24T03:15:09.056Z,1004.82
2017-11-24T03:16:09.070Z,1004.81
2017-11-24T03:17:09.089Z,1004.80
2017-11-24T03:18:09.108Z,1004.80
2017-11-24T03:19:09.136Z,1004.79
2017-11-24T03:20:09.146Z,1004.81
2017-11-24T03:21:09.157Z,1004.81
2017-11-24T03:22:09.175Z,1004.81
2017-11-24T03:23:09.447Z,1004.81
2017-11-24T03:24:09.221Z,1004.75
2017-11-24T03:25:09.241Z,1004.77
2017-11-24T03:26:09.258Z,1004.78
2017-11-24T03:27:09.282Z,1004.78
2017-11-24T03:28:09.291Z,1004.77
2017-11-24T03:29:09.322Z,1004.79
2017-11-24T03:30:09.341Z,1004.81
2017-11-24T03:31:09.346Z,1004.84
2017-11-24T03:32:09.369Z,1004.79
2017-11-24T03:33:09.393Z,1004.81
2017-11-24T03:34:09.419Z,1004.80
2017-11-24T03:35:09.430Z,1004.80
2017-11-24T03:36:09.445Z,1004.85
2017-11-24T03:37:09.471Z,1004.83
2017-11-24T03:38:09.782Z,1004.82
2017-11-24T03:39:09.503Z,1004.87
2017-11-24T03:40:09.533Z,1004.87
2017-11-24T03:41:09.536Z,1004.81
2017-11-24T03:42:09.565Z,1004.80
2017-11-24T03:43:09.584Z,1004.79
2017-11-24T03:44:09.604Z,1004.74
2017-11-24T03:45:09.619Z,1004.72
2017-11-24T03:46:09.657Z,1004.69
2017-11-24T03:47:09.647Z,1004.70
2017-11-24T03:48:09.678Z,1004.67
2017-11-24T03:49:09.693Z,1004.61
2017-11-24T03:50:09.712Z,1004.58
2017-11-24T03:51:09.736Z,1004.57
2017-11-24T03:52:09.743Z,1004.59
2017-11-24T03:53:10.016Z,1004.60
2017-11-24T03:54:09.790Z,1004.61
2017-11-24T03:55:09.801Z,1004.63
2017-11-24T03:56:09.823Z,1004.67
2017-11-24T03:57:09.841Z,1004.66
2017-11-24T03:58:09.863Z,1004.64
2017-11-24T03:59:09.886Z,1004.66
2017-11-24T04:00:09.891Z,1004.65
2017-11-24T04:01:09.919Z,1004.67
2017-11-24T04:02:09.935Z,1004.66
2017-11-24T04:03:09.958Z,1004.69
2017-11-24T04:04:09.979Z,1004.65
2017-11-24T04:05:09.994Z,1004.63
2017-11-24T04:06:10.009Z,1004.63
2017-11-24T04:07:10.029Z,1004.63
2017-11-24T04:08:10.301Z,1004.58
2017-11-24T04:09:10.085Z,1004.59
2017-11-24T04:10:10.078Z,1004.54
2017-11-24T04:11:10.101Z,1004.52
2017-11-24T04:12:10.132Z,1004.45
2017-11-24T04:13:10.450Z,1004.45
2017-11-24T04:14:10.153Z,1004.44
2017-11-24T04:15:10.173Z,1004.41
2017-11-24T04:16:10.198Z,1004.47
2017-11-24T04:17:10.221Z,1004.48
2017-11-24T04:18:10.243Z,1004.40
2017-11-24T04:19:10.249Z,1004.39
2017-11-24T04:20:10.272Z,1004.37
2017-11-24T04:21:10.286Z,1004.31
2017-11-24T04:22:10.312Z,1004.30
2017-11-24T04:23:10.329Z,1004.27
2017-11-24T04:24:10.339Z,1004.30
2017-11-24T04:25:10.369Z,1004.27
2017-11-24T04:26:10.388Z,1004.32
2017-11-24T04:27:10.409Z,1004.33
2017-11-24T04:28:10.417Z,1004.29
2017-11-24T04:29:10.434Z,1004.27
2017-11-24T04:30:10.459Z,1004.36
2017-11-24T04:31:10.480Z,1004.41
2017-11-24T04:32:10.484Z,1004.43
2017-11-24T04:33:10.819Z,1004.48
2017-11-24T04:34:10.532Z,1004.39
2017-11-24T04:35:10.558Z,1004.39
2017-11-24T04:36:10.569Z,1004.37
2017-11-24T04:37:10.584Z,1004.35
2017-11-24T04:38:10.605Z,1004.35
2017-11-24T04:39:10.628Z,1004.32
2017-11-24T04:40:10.639Z,1004.33
2017-11-24T04:41:10.656Z,1004.34
2017-11-24T04:42:10.671Z,1004.33
2017-11-24T04:43:10.954Z,1004.32
2017-11-24T04:44:10.718Z,1004.38
2017-11-24T04:45:10.730Z,1004.38
2017-11-24T04:46:10.753Z,1004.40
2017-11-24T04:47:10.776Z,1004.38
2017-11-24T04:48:11.080Z,1004.39
2017-11-24T04:49:10.803Z,1004.37
2017-11-24T04:50:10.825Z,1004.41
2017-11-24T04:51:10.838Z,1004.38
2017-11-24T04:52:10.859Z,1004.38
2017-11-24T04:53:10.879Z,1004.40
2017-11-24T04:54:10.904Z,1004.36
2017-11-24T04:55:10.913Z,1004.36
2017-11-24T04:56:10.921Z,1004.29
2017-11-24T04:57:10.949Z,1004.31
2017-11-24T04:58:11.223Z,1004.35
2017-11-24T04:59:10.982Z,1004.35
2017-11-24T05:00:11.005Z,1004.37
2017-11-24T05:01:11.018Z,1004.34
2017-11-24T05:02:11.030Z,1004.34
2017-11-24T05:03:11.352Z,1004.29
2017-11-24T05:04:11.068Z,1004.30
2017-11-24T05:05:11.099Z,1004.26
2017-11-24T05:06:11.099Z,1004.25
2017-11-24T05:07:11.120Z,1004.28
2017-11-24T05:08:11.154Z,1004.24
2017-11-24T05:09:11.166Z,1004.20
2017-11-24T05:10:11.178Z,1004.17
2017-11-24T05:11:11.199Z,1004.11
2017-11-24T05:12:11.234Z,1004.09
2017-11-24T05:13:11.230Z,1004.12
2017-11-24T05:14:11.244Z,1004.08
2017-11-24T05:15:11.274Z,1004.09
2017-11-24T05:16:11.299Z,1004.06
2017-11-24T05:17:11.297Z,1004.03
2017-11-24T05:18:11.625Z,1003.97
2017-11-24T05:19:11.344Z,1003.94
2017-11-24T05:20:11.371Z,1003.87
2017-11-24T05:21:11.376Z,1003.83
2017-11-24T05:22:11.403Z,1003.78
2017-11-24T05:23:11.424Z,1003.68
2017-11-24T05:24:11.432Z,1003.60
2017-11-24T05:25:11.459Z,1003.59
2017-11-24T05:26:11.470Z,1003.55
2017-11-24T05:27:11.494Z,1003.57
2017-11-24T05:28:11.498Z,1003.60
2017-11-24T05:29:11.517Z,1003.67
2017-11-24T05:30:11.547Z,1003.72
2017-11-24T05:31:11.564Z,1003.75
2017-11-24T05:32:11.568Z,1003.77
2017-11-24T05:33:11.593Z,1003.74
2017-11-24T05:34:11.610Z,1003.72
2017-11-24T05:35:11.619Z,1003.75
2017-11-24T05:36:11.651Z,1003.78
2017-11-24T05:37:11.670Z,1003.81
2017-11-24T05:38:11.693Z,1003.81
2017-11-24T05:39:11.715Z,1003.81
2017-11-24T05:40:11.713Z,1003.85
2017-11-24T05:41:11.740Z,1003.86
2017-11-24T05:42:11.752Z,1003.88
2017-11-24T05:43:12.022Z,1003.85
2017-11-24T05:44:11.799Z,1003.85
2017-11-24T05:45:11.817Z,1003.79
2017-11-24T05:46:11.821Z,1003.76
2017-11-24T05:47:11.851Z,1003.74
2017-11-24T05:48:11.865Z,1003.77
2017-11-24T05:49:11.875Z,1003.76
2017-11-24T05:50:11.892Z,1003.82
2017-11-24T05:51:11.918Z,1003.82
2017-11-24T05:52:11.938Z,1003.86
2017-11-24T05:53:11.942Z,1003.82
2017-11-24T05:54:11.969Z,1003.85
2017-11-24T05:55:11.990Z,1003.88
2017-11-24T05:56:12.010Z,1003.90
2017-11-24T05:57:12.021Z,1003.97
2017-11-24T05:58:12.044Z,1003.95
2017-11-24T05:59:12.057Z,1003.96
2017-11-24T06:00:12.079Z,1003.93
2017-11-24T06:01:12.094Z,1003.96
2017-11-24T06:02:12.115Z,1003.90
2017-11-24T06:03:12.136Z,1003.87
2017-11-24T06:04:12.141Z,1003.84
2017-11-24T06:05:12.181Z,1003.78
2017-11-24T06:06:12.189Z,1003.83
2017-11-24T06:07:12.205Z,1003.77
2017-11-24T06:08:12.525Z,1003.78
2017-11-24T06:09:12.234Z,1003.80
2017-11-24T06:10:12.257Z,1003.75
2017-11-24T06:11:12.285Z,1003.78
2017-11-24T06:12:12.292Z,1003.72
2017-11-24T06:13:12.313Z,1003.72
2017-11-24T06:14:12.337Z,1003.68
2017-11-24T06:15:12.346Z,1003.71
2017-11-24T06:16:12.364Z,1003.63
2017-11-24T06:17:12.379Z,1003.65
2017-11-24T06:18:12.423Z,1003.63
2017-11-24T06:19:12.415Z,1003.55
2017-11-24T06:20:12.439Z,1003.59
2017-11-24T06:21:12.471Z,1003.57
2017-11-24T06:22:12.475Z,1003.56
2017-11-24T06:23:12.489Z,1003.58
2017-11-24T06:24:12.511Z,1003.58
2017-11-24T06:25:12.526Z,1003.57
2017-11-24T06:26:12.558Z,1003.55
2017-11-24T06:27:12.560Z,1003.52
2017-11-24T06:28:12.576Z,1003.53
2017-11-24T06:29:12.611Z,1003.49
2017-11-24T06:30:12.612Z,1003.44
2017-11-24T06:31:12.636Z,1003.45
2017-11-24T06:32:12.660Z,1003.44
2017-11-24T06:33:12.670Z,1003.41
2017-11-24T06:34:12.706Z,1003.40
2017-11-24T06:35:12.711Z,1003.40
2017-11-24T06:36:12.735Z,1003.37
2017-11-24T06:37:12.755Z,1003.40
2017-11-24T06:38:12.762Z,1003.37
2017-11-24T06:39:12.786Z,1003.31
2017-11-24T06:40:12.816Z,1003.30
2017-11-24T06:41:12.826Z,1003.34
2017-11-24T06:42:12.838Z,1003.35
2017-11-24T06:43:12.856Z,1003.29
2017-11-24T06:44:12.877Z,1003.29
2017-11-24T06:45:12.895Z,1003.32
2017-11-24T06:46:12.901Z,1003.37
2017-11-24T06:47:12.927Z,1003.38
2017-11-24T06:48:12.955Z,1003.40
2017-11-24T06:49:12.971Z,1003.42
2017-11-24T06:50:12.985Z,1003.42
2017-11-24T06:51:13.006Z,1003.35
2017-11-24T06:52:13.022Z,1003.32
2017-11-24T06:53:13.040Z,1003.27
2017-11-24T06:54:13.048Z,1003.24
2017-11-24T06:55:13.069Z,1003.22
2017-11-24T06:56:13.100Z,1003.18
2017-11-24T06:57:13.110Z,1003.24
2017-11-24T06:58:13.376Z,1003.25
2017-11-24T06:59:13.145Z,1003.25
2017-11-24T07:00:13.172Z,1003.21
2017-11-24T07:01:13.189Z,1003.18
2017-11-24T07:02:13.203Z,1003.13
2017-11-24T07:03:13.218Z,1003.14
2017-11-24T07:04:13.248Z,1003.16
2017-11-24T07:05:13.265Z,1003.17
2017-11-24T07:06:13.269Z,1003.09
2017-11-24T07:07:13.306Z,1003.10
2017-11-24T07:08:13.313Z,1003.10
2017-11-24T07:09:13.340Z,1003.07
2017-11-24T07:10:13.347Z,1003.03
2017-11-24T07:11:13.362Z,1003.02
2017-11-24T07:12:13.385Z,1003.02
2017-11-24T07:13:13.409Z,1003.04
2017-11-24T07:14:13.417Z,1003.02
2017-11-24T07:15:13.443Z,1003.02
2017-11-24T07:16:13.456Z,1003.02
2017-11-24T07:17:13.480Z,1002.99
2017-11-24T07:18:13.735Z,1002.93
2017-11-24T07:19:13.513Z,1002.93
2017-11-24T07:20:13.533Z,1002.94
2017-11-24T07:21:13.557Z,1002.86
2017-11-24T07:22:13.558Z,1002.85
2017-11-24T07:23:13.589Z,1002.87
2017-11-24T07:24:13.601Z,1002.79
2017-11-24T07:25:13.636Z,1002.80
2017-11-24T07:26:13.637Z,1002.85
2017-11-24T07:27:13.652Z,1002.78
2017-11-24T07:28:13.672Z,1002.76
2017-11-24T07:29:13.695Z,1002.78
2017-11-24T07:30:13.705Z,1002.75
2017-11-24T07:31:13.725Z,1002.74
2017-11-24T07:32:13.752Z,1002.77
2017-11-24T07:33:13.774Z,1002.69
2017-11-24T07:34:13.778Z,1002.72
2017-11-24T07:35:13.810Z,1002.73
2017-11-24T07:36:13.825Z,1002.71
2017-11-24T07:37:13.846Z,1002.64
2017-11-24T07:38:14.120Z,1002.71
2017-11-24T07:39:13.882Z,1002.74
2017-11-24T07:40:13.892Z,1002.76
2017-11-24T07:41:13.914Z,1002.75
2017-11-24T07:42:13.941Z,1002.70
2017-11-24T07:43:13.952Z,1002.70
2017-11-24T07:44:13.970Z,1002.61
2017-11-24T07:45:13.992Z,1002.62
2017-11-24T07:46:14.008Z,1002.63
2017-11-24T07:47:14.039Z,1002.54
2017-11-24T07:48:14.038Z,1002.55
2017-11-24T07:49:14.068Z,1002.49
2017-11-24T07:50:14.088Z,1002.51
2017-11-24T07:51:14.103Z,1002.48
2017-11-24T07:52:14.120Z,1002.47
2017-11-24T07:53:14.393Z,1002.40
2017-11-24T07:54:14.153Z,1002.40
2017-11-24T07:55:14.181Z,1002.43
2017-11-24T07:56:14.204Z,1002.41
2017-11-24T07:57:14.213Z,1002.39
2017-11-24T07:58:14.227Z,1002.37
2017-11-24T07:59:14.250Z,1002.36
2017-11-24T08:00:14.277Z,1002.36
2017-11-24T08:01:14.298Z,1002.38
2017-11-24T08:02:14.301Z,1002.33
2017-11-24T08:03:14.572Z,1002.27
2017-11-24T08:04:14.342Z,1002.19
2017-11-24T08:05:14.364Z,1002.17
2017-11-24T08:06:14.392Z,1002.11
2017-11-24T08:07:14.400Z,1002.05
2017-11-24T08:08:14.417Z,1002.07
2017-11-24T08:09:14.439Z,1002.12
2017-11-24T08:10:14.459Z,1002.16
2017-11-24T08:11:14.488Z,1002.14
2017-11-24T08:12:14.490Z,1002.18
2017-11-24T08:13:14.516Z,1002.20
2017-11-24T08:14:14.535Z,1002.28
2017-11-24T08:15:14.555Z,1002.27
2017-11-24T08:16:14.574Z,1002.31
2017-11-24T08:17:14.591Z,1002.33
2017-11-24T08:18:14.612Z,1002.28
2017-11-24T08:19:14.627Z,1002.27
2017-11-24T08:20:14.655Z,1002.16
2017-11-24T08:21:14.669Z,1002.18
2017-11-24T08:22:14.687Z,1002.16
2017-11-24T08:23:14.699Z,1002.28
2017-11-24T08:24:14.727Z,1002.13
2017-11-24T08:25:14.749Z,1002.13
2017-11-24T08:26:14.770Z,1002.14
2017-11-24T08:27:14.798Z,1002.12
2017-11-24T08:28:14.800Z,1002.13
2017-11-24T08:29:14.816Z,1002.09
2017-11-24T08:30:14.844Z,1002.03
2017-11-24T08:31:14.866Z,1002.01
2017-11-24T08:32:14.887Z,1001.99
2017-11-24T08:33:14.901Z,1001.98
2017-11-24T08:34:14.913Z,1001.95
2017-11-24T08:35:14.931Z,1002.01
2017-11-24T08:36:14.953Z,1002.02
2017-11-24T08:37:14.973Z,1001.94
2017-11-24T08:38:15.296Z,1001.92
2017-11-24T08:39:15.017Z,1001.97
2017-11-24T08:40:15.027Z,1001.94
2017-11-24T08:41:15.048Z,1001.97
2017-11-24T08:42:15.074Z,1002.02
2017-11-24T08:43:15.340Z,1001.99
2017-11-24T08:44:15.117Z,1002.04
2017-11-24T08:45:15.145Z,1002.01
2017-11-24T08:46:15.144Z,1001.99
2017-11-24T08:47:15.169Z,1001.93
2017-11-24T08:48:15.190Z,1001.96
2017-11-24T08:49:15.205Z,1002.01
2017-11-24T08:50:15.233Z,1001.96
2017-11-24T08:51:15.254Z,1001.88
2017-11-24T08:52:15.274Z,1001.95
2017-11-24T08:53:15.280Z,1001.90
2017-11-24T08:54:15.307Z,1001.90
2017-11-24T08:55:15.329Z,1001.91
2017-11-24T08:56:15.350Z,1001.91
2017-11-24T08:57:15.364Z,1001.81
2017-11-24T08:58:15.388Z,1001.72
2017-11-24T08:59:15.402Z,1001.62
2017-11-24T09:00:15.416Z,1001.73
2017-11-24T09:01:15.437Z,1001.66
2017-11-24T09:02:15.468Z,1001.55
2017-11-24T09:03:15.736Z,1001.56
2017-11-24T09:04:15.513Z,1001.54
2017-11-24T09:05:15.536Z,1001.55
2017-11-24T09:06:15.532Z,1001.50
2017-11-24T09:07:15.561Z,1001.47
2017-11-24T09:08:15.580Z,1001.52
2017-11-24T09:09:15.603Z,1001.54
2017-11-24T09:10:15.641Z,1001.51
2017-11-24T09:11:15.639Z,1001.56
2017-11-24T09:12:15.657Z,1001.52
2017-11-24T09:13:15.675Z,1001.52
2017-11-24T09:14:15.697Z,1001.54
2017-11-24T09:15:15.719Z,1001.53
2017-11-24T09:16:15.732Z,1001.53
2017-11-24T09:17:15.757Z,1001.51
2017-11-24T09:18:16.015Z,1001.53
2017-11-24T09:19:15.790Z,1001.52
2017-11-24T09:20:15.805Z,1001.47
2017-11-24T09:21:15.828Z,1001.42
2017-11-24T09:22:15.856Z,1001.41
2017-11-24T09:23:15.876Z,1001.45
2017-11-24T09:24:15.897Z,1001.45
2017-11-24T09:25:15.902Z,1001.45
2017-11-24T09:26:15.929Z,1001.46
2017-11-24T09:27:15.961Z,1001.52
2017-11-24T09:28:15.965Z,1001.49
2017-11-24T09:29:15.986Z,1001.37
2017-11-24T09:30:16.008Z,1001.40
2017-11-24T09:31:16.023Z,1001.47
2017-11-24T09:32:16.046Z,1001.46
2017-11-24T09:33:16.065Z,1001.50
2017-11-24T09:34:16.089Z,1001.46
2017-11-24T09:35:16.113Z,1001.47
2017-11-24T09:36:16.130Z,1001.39
2017-11-24T09:37:16.151Z,1001.45
2017-11-24T09:38:16.460Z,1001.41
2017-11-24T09:39:16.181Z,1001.37
2017-11-24T09:40:16.203Z,1001.33
2017-11-24T09:41:16.225Z,1001.33
2017-11-24T09:42:16.240Z,1001.33
2017-11-24T09:43:16.266Z,1001.38
2017-11-24T09:44:16.287Z,1001.28
2017-11-24T09:45:16.310Z,1001.34
2017-11-24T09:46:16.324Z,1001.27
2017-11-24T09:47:16.344Z,1001.32
2017-11-24T09:48:16.362Z,1001.30
2017-11-24T09:49:16.380Z,1001.25
2017-11-24T09:50:16.406Z,1001.30
2017-11-24T09:51:16.419Z,1001.26
2017-11-24T09:52:16.440Z,1001.22
2017-11-24T09:53:16.467Z,1001.16
2017-11-24T09:54:16.490Z,1001.22
2017-11-24T09:55:16.512Z,1001.23
2017-11-24T09:56:16.527Z,1001.23
2017-11-24T09:57:16.542Z,1001.18
2017-11-24T09:58:16.812Z,1001.23
2017-11-24T09:59:16.589Z,1001.21
2017-11-24T10:00:16.609Z,1001.16
2017-11-24T10:01:16.626Z,1001.07
2017-11-24T10:02:16.654Z,1001.15
2017-11-24T10:03:16.670Z,1001.18
2017-11-24T10:04:16.691Z,1001.24
2017-11-24T10:05:16.712Z,1001.24
2017-11-24T10:06:16.729Z,1001.32
2017-11-24T10:07:16.755Z,1001.09
2017-11-24T10:08:16.758Z,1001.09
2017-11-24T10:09:16.786Z,1001.13
2017-11-24T10:10:16.802Z,1001.02
2017-11-24T10:11:16.844Z,1001.07
2017-11-24T10:12:16.844Z,1001.04
2017-11-24T10:13:16.864Z,1000.95
2017-11-24T10:14:16.892Z,1000.98
2017-11-24T10:15:16.908Z,1000.95
2017-11-24T10:16:16.936Z,1001.05
2017-11-24T10:17:16.951Z,1000.99
2017-11-24T10:18:17.230Z,1000.99
2017-11-24T10:19:16.999Z,1001.00
2017-11-24T10:20:17.021Z,1001.09
2017-11-24T10:21:17.036Z,1001.10
2017-11-24T10:22:17.064Z,1001.06
2017-11-24T10:23:17.084Z,1001.06
2017-11-24T10:24:17.090Z,1001.04
2017-11-24T10:25:17.116Z,1001.25
2017-11-24T10:26:17.130Z,1001.15
2017-11-24T10:27:17.158Z,1001.08
2017-11-24T10:28:17.173Z,1001.04
2017-11-24T10:29:17.213Z,1000.96
2017-11-24T10:30:17.226Z,1000.98
2017-11-24T10:31:17.244Z,1000.90
2017-11-24T10:32:17.265Z,1000.97
2017-11-24T10:33:17.287Z,1000.92
2017-11-24T10:34:17.307Z,1000.95
2017-11-24T10:35:17.329Z,1000.99
2017-11-24T10:36:17.343Z,1000.99
2017-11-24T10:37:17.366Z,1001.00
2017-11-24T10:38:17.386Z,1001.11
2017-11-24T10:39:17.408Z,1000.96
2017-11-24T10:40:17.429Z,1000.97
2017-11-24T10:41:17.457Z,1001.00
2017-11-24T10:42:17.472Z,1000.93
2017-11-24T10:43:17.506Z,1001.03
2017-11-24T10:44:17.521Z,1000.99
2017-11-24T10:45:17.542Z,1001.01
2017-11-24T10:46:17.563Z,1000.90
2017-11-24T10:47:17.578Z,1001.00
2017-11-24T10:48:17.609Z,1000.98
2017-11-24T10:49:17.622Z,1001.03
2017-11-24T10:50:17.650Z,1000.95
2017-11-24T10:51:17.663Z,1001.01
2017-11-24T10:52:17.686Z,1000.96
2017-11-24T10:53:17.707Z,1000.89
2017-11-24T10:54:17.727Z,1000.97
2017-11-24T10:55:17.750Z,1001.05
2017-11-24T10:56:17.779Z,1001.06
2017-11-24T10:57:17.799Z,1001.10
2017-11-24T10:58:18.065Z,1000.96
2017-11-24T10:59:17.840Z,1001.09
2017-11-24T11:00:17.868Z,1001.10
2017-11-24T11:01:17.895Z,1001.06
2017-11-24T11:02:17.906Z,1001.04
2017-11-24T11:03:17.926Z,1001.14
2017-11-24T11:04:17.949Z,1001.06
2017-11-24T11:05:17.965Z,1001.09
2017-11-24T11:06:17.985Z,1001.08
2017-11-24T11:07:18.006Z,1001.10
2017-11-24T11:08:18.029Z,1001.10
2017-11-24T11:09:18.050Z,1001.12
2017-11-24T11:10:18.078Z,1001.14
2017-11-24T11:11:18.103Z,1001.13
2017-11-24T11:12:18.123Z,1001.09
2017-11-24T11:13:18.141Z,1001.19
2017-11-24T11:14:18.158Z,1001.22
2017-11-24T11:15:18.178Z,1001.21
2017-11-24T11:16:18.213Z,1001.21
2017-11-24T11:17:18.229Z,1001.26
2017-11-24T11:18:18.492Z,1001.23
2017-11-24T11:19:18.274Z,1001.18
2017-11-24T11:20:18.291Z,1001.19
2017-11-24T11:21:18.311Z,1001.13
2017-11-24T11:22:18.328Z,1001.20
2017-11-24T11:23:18.356Z,1001.17
2017-11-24T11:24:18.377Z,1001.12
2017-11-24T11:25:18.398Z,1001.24
2017-11-24T11:26:18.413Z,1001.16
2017-11-24T11:27:18.434Z,1001.21
2017-11-24T11:28:18.456Z,1001.12
2017-11-24T11:29:18.485Z,1001.15
2017-11-24T11:30:18.517Z,1001.15
2017-11-24T11:31:18.519Z,1001.16
2017-11-24T11:32:18.541Z,1001.25
2017-11-24T11:33:18.569Z,1001.15
2017-11-24T11:34:18.585Z,1001.16
2017-11-24T11:35:18.614Z,1001.20
2017-11-24T11:36:18.626Z,1001.27
2017-11-24T11:37:18.661Z,1001.12
2017-11-24T11:38:18.927Z,1001.17
2017-11-24T11:39:18.711Z,1000.97
2017-11-24T11:40:18.719Z,1001.13
2017-11-24T11:41:18.734Z,1001.19
2017-11-24T11:42:18.762Z,1001.17
2017-11-24T11:43:18.783Z,1001.15
2017-11-24T11:44:18.801Z,1001.10
2017-11-24T11:45:18.820Z,1001.10
2017-11-24T11:46:18.847Z,1001.05
2017-11-24T11:47:18.862Z,1001.06
2017-11-24T11:48:18.890Z,1001.08
2017-11-24T11:49:18.912Z,1001.06
2017-11-24T11:50:18.926Z,1001.04
2017-11-24T11:51:18.947Z,1001.10
2017-11-24T11:52:18.975Z,1001.16
2017-11-24T11:53:18.992Z,1001.07
2017-11-24T11:54:19.023Z,1001.12
2017-11-24T11:55:19.040Z,1001.11
2017-11-24T11:56:19.053Z,1001.21
2017-11-24T11:57:19.076Z,1001.24
2017-11-24T11:58:19.102Z,1001.20
2017-11-24T11:59:19.119Z,1001.15
2017-11-24T12:00:19.150Z,1001.18
2017-11-24T12:01:19.168Z,1001.20
2017-11-24T12:02:19.191Z,1001.20
2017-11-24T12:03:19.210Z,1001.09
2017-11-24T12:04:19.227Z,1001.21
2017-11-24T12:05:19.257Z,1001.20